Time;durP1;ratioP1;P1;durP2;ratioP2;P2;SDS_P1;SDS_P2;PMS_P1;PMS_P2;Temp;Humidity;BMP_temperature;BMP_pressure;BME280_temperature;BME280_humidity;BME280_pressure;Samples;Min_cycle;Max_cycle;Signal;HPM_P1;HPM_P2
2021/08/19 00:00:28;;;;;;;5.17;3.08;;;;;;;15.00;63.00;99955.02;1964349;89;31120;-64
2021/08/19 00:03:32;;;;;;;2.72;2.35;;;;;;;14.99;63.04;99953.30;1990014;88;29763;-62
2021/08/19 00:06:34;;;;;;;5.15;2.58;;;;;;;14.98;63.13;99950.23;1992532;89;29343;-62
2021/08/19 00:09:38;;;;;;;6.60;2.95;;;;;;;14.96;63.27;99953.05;1977517;89;27658;-61
2021/08/19 00:12:40;;;;;;;5.62;2.42;;;;;;;14.95;63.37;99954.52;1973689;89;28838;-62
2021/08/19 00:15:43;;;;;;;3.47;2.52;;;;;;;14.93;63.51;99952.42;1992744;89;31850;-61
2021/08/19 00:18:47;;;;;;;2.98;2.33;;;;;;;14.92;63.75;99949.35;1994522;88;33835;-62
2021/08/19 00:21:50;;;;;;;3.58;2.67;;;;;;;14.89;63.65;99946.41;1976286;89;29351;-62
2021/08/19 00:24:52;;;;;;;4.22;3.15;;;;;;;14.86;63.76;99952.02;1991304;89;27739;-63
2021/08/19 00:27:54;;;;;;;6.60;2.55;;;;;;;14.83;63.83;99950.38;1989587;88;28689;-63
2021/08/19 00:30:56;;;;;;;3.10;2.40;;;;;;;14.78;63.89;99949.88;1976514;88;31064;-63
2021/08/19 00:33:58;;;;;;;3.83;2.67;;;;;;;14.76;63.90;99953.64;1983453;88;33002;-63
2021/08/19 00:37:01;;;;;;;2.65;2.40;;;;;;;14.73;64.01;99957.44;1982538;88;29393;-64
2021/08/19 00:40:08;;;;;;;2.77;2.58;;;;;;;14.69;64.29;99955.45;1982409;89;27724;-63
2021/08/19 00:43:27;;;;;;;3.45;2.92;;;;;;;14.67;64.50;99952.44;1986311;88;29507;-63
2021/08/19 00:46:32;;;;;;;5.15;2.65;;;;;;;14.67;64.60;99956.48;1974237;89;29553;-62
2021/08/19 00:49:37;;;;;;;2.08;1.87;;;;;;;14.70;64.74;99958.53;1988160;89;33785;-61
2021/08/19 00:52:41;;;;;;;3.20;2.70;;;;;;;14.77;64.94;99957.59;1984986;88;34698;-63
2021/08/19 00:55:45;;;;;;;7.25;2.30;;;;;;;14.83;64.94;99950.38;1985782;89;27743;-62
2021/08/19 00:58:47;;;;;;;2.65;1.92;;;;;;;14.91;65.05;99955.22;1987121;88;28678;-62
2021/08/19 01:01:50;;;;;;;2.77;2.27;;;;;;;14.98;65.10;99953.80;1985569;89;31079;-63
2021/08/19 01:04:55;;;;;;;2.98;2.40;;;;;;;15.05;65.04;99954.20;1987178;89;33082;-63
2021/08/19 01:08:01;;;;;;;;;;;;;;;15.13;65.28;99952.28;1987906;89;28943;-63
2021/08/19 01:11:04;;;;;;;3.12;2.40;;;;;;;15.19;65.21;99954.03;1984621;88;27872;-63
2021/08/19 01:14:13;;;;;;;3.17;2.30;;;;;;;15.25;65.18;99955.41;1960437;88;28664;-62
2021/08/19 01:17:17;;;;;;;2.92;2.47;;;;;;;15.30;65.12;99957.28;1986870;88;32401;-63
2021/08/19 01:20:26;;;;;;;2.52;2.22;;;;;;;15.37;65.05;99959.53;1986366;88;33788;-63
2021/08/19 01:23:28;;;;;;;2.22;2.02;;;;;;;15.43;65.12;99959.05;1974820;89;30480;-62
2021/08/19 01:26:30;;;;;;;4.20;2.55;;;;;;;15.45;64.95;99949.00;1987887;89;27739;-63
2021/08/19 01:29:32;;;;;;;2.60;2.40;;;;;;;15.47;64.91;99955.15;1955645;89;28675;-64
2021/08/19 01:32:33;;;;;;;3.50;2.55;;;;;;;15.46;64.70;99952.95;1976273;88;31069;-63
2021/08/19 01:35:35;;;;;;;4.50;2.70;;;;;;;15.45;64.70;99957.09;1985401;89;33726;-63
2021/08/19 01:38:39;;;;;;;6.15;2.80;;;;;;;15.42;64.80;99947.41;1991664;88;28776;-64
2021/08/19 01:41:41;;;;;;;3.47;2.70;;;;;;;15.39;64.64;99951.68;1977532;88;27721;-63
2021/08/19 01:44:43;;;;;;;3.62;2.20;;;;;;;15.33;64.72;99944.91;1990312;88;28691;-63
2021/08/19 01:47:48;;;;;;;2.75;2.25;;;;;;;15.29;64.69;99943.42;1968505;89;31039;-63
2021/08/19 01:50:50;;;;;;;4.95;2.70;;;;;;;15.24;64.79;99948.28;1984336;89;32975;-63
2021/08/19 01:53:53;;;;;;;3.05;2.12;;;;;;;15.19;64.78;99947.29;1985274;89;29756;-63
2021/08/19 01:56:55;;;;;;;3.80;2.40;;;;;;;15.15;64.81;99951.19;1986181;89;27600;-63
2021/08/19 01:59:57;;;;;;;4.72;2.42;;;;;;;15.11;64.85;99947.48;1989051;89;28793;-63
2021/08/19 02:03:03;;;;;;;5.45;2.25;;;;;;;15.07;64.99;99945.98;1975936;88;31153;-63
2021/08/19 02:06:05;;;;;;;3.58;2.45;;;;;;;15.01;64.98;99944.61;1989171;89;33830;-64
2021/08/19 02:09:07;;;;;;;3.75;2.25;;;;;;;14.96;65.12;99943.61;1986280;88;29940;-63
2021/08/19 02:12:09;;;;;;;4.72;2.47;;;;;;;14.92;65.18;99945.30;1986966;89;27728;-63
2021/08/19 02:15:13;;;;;;;4.08;2.42;;;;;;;14.86;65.34;99939.87;1989641;89;29332;-63
2021/08/19 02:18:14;;;;;;;3.05;2.45;;;;;;;14.82;65.32;99938.38;1959633;89;31857;-62
2021/08/19 02:21:16;;;;;;;3.85;2.60;;;;;;;14.76;65.38;99942.86;1987252;89;33705;-62
2021/08/19 02:24:18;;;;;;;6.22;2.85;;;;;;;14.71;65.62;99937.80;1968992;89;31460;-62
2021/08/19 02:27:21;;;;;;;4.00;2.60;;;;;;;14.67;65.75;99934.92;1985977;89;27731;-63
2021/08/19 02:30:23;;;;;;;4.42;2.58;;;;;;;14.62;65.87;99939.30;1982799;88;29766;-62
2021/08/19 02:33:26;;;;;;;4.90;2.92;;;;;;;14.58;65.99;99931.94;1988804;88;32294;-62
2021/08/19 02:36:28;;;;;;;2.87;2.55;;;;;;;14.56;66.45;99933.88;1985197;89;33937;-62
2021/08/19 02:39:30;;;;;;;3.60;2.65;;;;;;;14.55;66.33;99935.34;1989097;88;30507;-63
2021/08/19 02:42:32;;;;;;;4.87;2.75;;;;;;;14.57;66.57;99935.59;1977300;88;27632;-63
2021/08/19 02:45:36;;;;;;;3.80;2.75;;;;;;;14.61;66.69;99933.53;1986126;89;29919;-62
2021/08/19 02:48:39;;;;;;;4.87;3.10;;;;;;;14.65;66.66;99926.08;1986916;89;31014;-63
2021/08/19 02:51:41;;;;;;;6.83;3.10;;;;;;;14.70;66.67;99927.99;1985497;89;33956;-62
2021/08/19 02:54:43;;;;;;;4.00;3.00;;;;;;;14.75;66.75;99925.83;1988347;88;29371;-63
2021/08/19 02:57:44;;;;;;;5.62;2.87;;;;;;;14.80;66.73;99930.41;1988736;88;27670;-64
2021/08/19 03:00:46;;;;;;;5.45;3.40;;;;;;;14.88;66.82;99925.80;1985325;88;28639;-63
2021/08/19 03:03:49;;;;;;;5.20;3.25;;;;;;;14.93;66.80;99924.10;1977147;89;32030;-63
2021/08/19 03:06:51;;;;;;;2.75;2.52;;;;;;;14.98;66.76;99922.78;1987359;89;33005;-63
2021/08/19 03:09:53;;;;;;;3.55;2.95;;;;;;;15.03;66.77;99919.73;1989110;89;29445;-63
2021/08/19 03:12:55;;;;;;;4.72;3.47;;;;;;;15.08;66.94;99920.27;1988109;89;27712;-63
2021/08/19 03:15:57;;;;;;;6.62;3.00;;;;;;;15.12;66.74;99919.06;1985585;88;29505;-64
2021/08/19 03:19:01;;;;;;;4.90;2.70;;;;;;;15.16;66.74;99917.83;1982798;89;31057;-63
2021/08/19 03:22:03;;;;;;;3.75;2.75;;;;;;;15.22;66.70;99915.66;1984467;89;32961;-63
2021/08/19 03:25:08;;;;;;;4.20;2.90;;;;;;;15.23;66.69;99908.78;1984305;89;29939;-63
2021/08/19 03:28:13;;;;;;;3.72;2.75;;;;;;;15.27;66.74;99906.23;1988684;89;27720;-63
2021/08/19 03:31:15;;;;;;;2.83;2.40;;;;;;;15.30;66.75;99911.91;1981494;89;29444;-62
2021/08/19 03:34:18;;;;;;;3.60;2.47;;;;;;;15.32;66.69;99908.11;1986885;89;31546;-62
2021/08/19 03:37:24;;;;;;;3.80;3.02;;;;;;;15.36;66.71;99908.72;1988760;88;32990;-63
2021/08/19 03:40:26;;;;;;;2.60;2.40;;;;;;;15.37;66.74;99911.80;1989344;88;30188;-62
2021/08/19 03:43:29;;;;;;;4.95;2.85;;;;;;;15.41;66.64;99910.59;1981037;89;27620;-63
2021/08/19 03:46:32;;;;;;;4.05;2.80;;;;;;;15.44;66.68;99910.36;1988438;89;29257;-62
2021/08/19 03:49:35;;;;;;;5.15;2.70;;;;;;;15.48;66.66;99920.43;1988292;88;32369;-63
2021/08/19 03:52:38;;;;;;;4.55;3.25;;;;;;;15.52;66.66;99912.95;1979879;89;33984;-63
2021/08/19 03:55:40;;;;;;;4.65;3.40;;;;;;;15.55;66.58;99918.12;1986784;89;29331;-63
2021/08/19 03:58:42;;;;;;;3.40;3.10;;;;;;;15.58;66.63;99921.94;1987593;89;27639;-63
2021/08/19 04:01:45;;;;;;;4.08;3.42;;;;;;;15.60;66.62;99915.43;1977620;88;29628;-62
2021/08/19 04:04:47;;;;;;;4.67;3.40;;;;;;;15.62;66.68;99912.13;1988535;88;31035;-63
2021/08/19 04:08:22;;;;;;;3.40;3.10;;;;;;;15.65;66.63;99917.30;1980218;88;32969;-62
2021/08/19 04:11:04;;;;;;;5.27;3.53;;;;;;;15.68;66.69;99909.94;1948466;89;27690;-62
2021/08/19 04:14:07;;;;;;;4.25;3.02;;;;;;;15.70;66.65;99912.88;1988935;89;27673;-62
2021/08/19 04:17:09;;;;;;;4.00;3.10;;;;;;;15.73;66.64;99911.30;1984995;89;28742;-63
2021/08/19 04:20:12;;;;;;;4.70;3.25;;;;;;;15.77;66.68;99918.66;1989210;88;31069;-62
2021/08/19 04:23:15;;;;;;;2.90;2.67;;;;;;;15.83;66.64;99918.67;1984472;88;33794;-62
2021/08/19 04:26:17;;;;;;;3.98;2.80;;;;;;;15.87;66.68;99922.42;1974640;89;30545;-62
2021/08/19 04:29:20;;;;;;;2.62;2.33;;;;;;;15.92;66.63;99931.51;1989102;87;27724;-62
2021/08/19 04:32:23;;;;;;;8.45;3.12;;;;;;;15.97;66.62;99931.98;1994897;88;28723;-62
2021/08/19 04:35:32;;;;;;;6.50;3.25;;;;;;;16.01;66.70;99925.87;1994498;89;32248;-62
2021/08/19 04:38:36;;;;;;;4.75;3.25;;;;;;;16.06;66.67;99924.53;1994281;88;29753;-62
2021/08/19 04:41:39;;;;;;;4.42;3.02;;;;;;;16.12;66.69;99919.63;1990171;88;29374;-64
2021/08/19 04:44:41;;;;;;;3.02;2.70;;;;;;;16.16;66.62;99921.08;2000245;88;28268;-63
2021/08/19 04:47:43;;;;;;;3.35;2.85;;;;;;;16.21;66.56;99922.94;1995971;88;28669;-62
2021/08/19 04:50:46;;;;;;;7.03;3.15;;;;;;;16.27;66.66;99922.46;1993483;88;31050;-62
2021/08/19 04:53:50;;;;;;;4.58;2.72;;;;;;;16.33;66.66;99930.06;1990693;88;33609;-62
2021/08/19 04:56:53;;;;;;;;;;;;;;;16.36;66.54;99932.52;1977525;89;29595;-62
2021/08/19 05:00:04;;;;;;;4.47;2.50;;;;;;;16.42;66.65;99931.67;1994831;89;27707;-62
2021/08/19 05:03:24;;;;;;;4.67;2.92;;;;;;;16.46;66.56;99927.24;1979712;88;27659;-63
2021/08/19 05:06:40;;;;;;;6.05;2.90;;;;;;;16.53;66.65;99923.55;1981907;89;27944;-63
2021/08/19 05:10:22;;;;;;;8.45;3.08;;;;;;;16.56;66.47;99921.45;1973358;89;30640;-63
2021/08/19 05:13:29;;;;;;;4.65;3.15;;;;;;;16.64;66.38;99921.33;1965593;89;27691;-63
2021/08/19 05:16:30;;;;;;;5.30;2.62;;;;;;;16.71;66.38;99924.76;1979393;88;27719;-71
2021/08/19 05:19:27;;;;;;;3.72;2.80;;;;;;;16.79;66.41;99915.17;1988823;88;28254;-70
2021/08/19 05:22:29;;;;;;;5.22;3.15;;;;;;;16.87;66.36;99920.80;1991163;89;31139;-70
2021/08/19 05:25:32;;;;;;;7.20;3.90;;;;;;;16.94;66.20;99923.38;1990914;89;32971;-71
2021/08/19 05:28:35;;;;;;;3.87;3.27;;;;;;;17.03;66.31;99919.56;1968966;88;30125;-70
2021/08/19 05:31:37;;;;;;;3.27;2.85;;;;;;;17.09;66.28;99923.12;1960544;89;27815;-62
2021/08/19 05:34:39;;;;;;;10.63;3.65;;;;;;;17.19;66.23;99924.06;1985354;89;28800;-63
2021/08/19 05:37:41;;;;;;;7.15;3.22;;;;;;;17.38;65.81;99927.42;1972996;88;32172;-62
2021/08/19 05:41:18;;;;;;;8.58;3.60;;;;;;;17.38;65.81;99927.42;1981350;89;33184;-60
2021/08/19 05:44:36;;;;;;;5.08;3.25;;;;;;;17.48;66.04;99938.34;1980740;88;27687;-62
2021/08/19 05:47:51;;;;;;;5.15;2.92;;;;;;;17.56;65.99;99930.91;1967507;88;27672;-59
2021/08/19 05:51:00;;;;;;;8.28;3.27;;;;;;;17.65;65.82;99931.98;1976872;88;27888;-61
2021/08/19 05:54:08;;;;;;;8.20;3.92;;;;;;;17.73;65.66;99933.55;1978151;88;27963;-61
2021/08/19 05:57:23;;;;;;;6.03;3.12;;;;;;;17.82;65.73;99930.55;1981445;88;29710;-63
2021/08/19 06:00:34;;;;;;;7.05;3.42;;;;;;;17.92;65.57;99936.40;1987560;88;27765;-60
2021/08/19 06:03:45;;;;;;;5.50;3.67;;;;;;;18.03;65.49;99936.86;1986507;88;27766;-80
2021/08/19 06:07:01;;;;;;;7.90;3.62;;;;;;;17.92;65.41;99901.16;1980713;88;27738;-76
2021/08/19 06:10:13;;;;;;;10.10;3.12;;;;;;;18.23;65.27;99932.87;1993531;88;27687;-77
2021/08/19 06:13:18;;;;;;;6.00;3.80;;;;;;;18.36;65.16;99937.59;2013981;87;31873;-75
2021/08/19 06:16:20;;;;;;;7.22;3.55;;;;;;;18.51;64.96;99933.16;1986960;88;29574;-79
2021/08/19 06:19:22;;;;;;;5.60;3.75;;;;;;;18.67;64.65;99936.70;1956140;89;27751;-79
2021/08/19 06:22:24;;;;;;;10.23;3.65;;;;;;;18.81;64.49;99936.31;2004443;88;28653;-79
2021/08/19 06:25:27;;;;;;;10.40;3.55;;;;;;;18.99;64.21;99935.67;1992734;87;31809;-79
2021/08/19 06:28:28;;;;;;;6.50;3.35;;;;;;;19.13;64.04;99928.47;2018069;88;33132;-79
2021/08/19 06:31:30;;;;;;;5.17;3.40;;;;;;;19.31;63.78;99928.29;2020691;87;30021;-74
2021/08/19 06:34:34;;;;;;;7.37;4.08;;;;;;;19.47;63.54;99927.70;1988840;88;27731;-79
2021/08/19 06:37:37;;;;;;;10.05;3.60;;;;;;;19.66;63.32;99926.86;1984249;89;28658;-78
2021/08/19 06:41:39;;;;;;;11.22;3.80;;;;;;;19.85;63.10;99925.96;1993875;89;31045;-65
2021/08/19 06:44:06;;;;;;;5.58;3.12;;;;;;;20.08;62.89;99927.88;1945512;89;30299;-62
2021/08/19 06:47:10;;;;;;;8.23;3.60;;;;;;;20.30;62.43;99923.93;1962017;89;30166;-63
2021/08/19 06:50:14;;;;;;;8.68;4.10;;;;;;;20.52;61.81;99930.02;1965951;89;27696;-62
2021/08/19 06:53:16;;;;;;;7.95;3.90;;;;;;;20.73;61.66;99928.91;1994667;89;28721;-61
2021/08/19 06:56:19;;;;;;;5.47;3.45;;;;;;;20.95;61.52;99921.70;1994154;88;31430;-60
2021/08/19 06:59:21;;;;;;;5.17;3.87;;;;;;;21.19;61.04;99929.80;1994578;89;32906;-61
2021/08/19 07:02:23;;;;;;;4.80;3.20;;;;;;;21.44;60.59;99931.38;1994692;87;30538;-62
2021/08/19 07:05:27;;;;;;;8.98;3.40;;;;;;;21.67;60.35;99935.03;1995103;88;27738;-62
2021/08/19 07:08:30;;;;;;;8.63;3.10;;;;;;;21.90;59.74;99931.81;1972916;88;28697;-62
2021/08/19 07:11:32;;;;;;;4.87;3.12;;;;;;;22.09;59.19;99932.95;1961703;89;31159;-62
2021/08/19 07:14:34;;;;;;;6.35;3.35;;;;;;;22.30;58.87;99927.63;1961868;90;33701;-63
2021/08/19 07:17:37;;;;;;;11.40;4.35;;;;;;;22.53;58.38;99924.37;1972984;89;30520;-64
2021/08/19 07:20:39;;;;;;;7.33;3.50;;;;;;;22.78;58.03;99923.96;1980047;88;27715;-65
2021/08/19 07:23:41;;;;;;;3.40;2.90;;;;;;;23.01;57.37;99924.70;1962065;89;29060;-61
2021/08/19 07:26:43;;;;;;;3.60;3.30;;;;;;;23.28;56.89;99924.95;1962702;89;31612;-62
2021/08/19 07:29:45;;;;;;;10.00;2.90;;;;;;;23.55;56.26;99917.48;1994495;88;33085;-61
2021/08/19 07:32:47;;;;;;;10.65;4.15;;;;;;;23.73;55.72;99921.40;1994245;88;30553;-62
2021/08/19 07:35:49;;;;;;;10.82;3.52;;;;;;;23.97;55.45;99917.81;1994652;88;28076;-61
2021/08/19 07:38:51;;;;;;;4.83;3.65;;;;;;;24.20;54.70;99921.20;1971001;87;29812;-62
2021/08/19 07:41:53;;;;;;;14.65;4.75;;;;;;;24.45;53.98;99912.91;1961691;90;31682;-61
2021/08/19 07:44:55;;;;;;;10.58;4.60;;;;;;;24.68;53.98;99912.98;1978485;88;33673;-61
2021/08/19 07:47:57;;;;;;;5.35;3.42;;;;;;;24.90;53.33;99906.41;1995816;88;29783;-63
2021/08/19 07:50:59;;;;;;;3.72;3.42;;;;;;;25.11;52.97;99913.14;2019959;88;27802;-61
2021/08/19 07:54:01;;;;;;;4.17;3.70;;;;;;;25.40;52.42;99913.78;2021123;88;29858;-60
2021/08/19 07:57:05;;;;;;;4.35;3.92;;;;;;;25.60;51.54;99907.83;2016831;88;32015;-61
2021/08/19 08:00:08;;;;;;;4.33;3.50;;;;;;;25.79;51.43;99911.44;1995178;88;32962;-64
2021/08/19 08:03:10;;;;;;;4.58;3.85;;;;;;;26.07;50.82;99911.34;2013182;87;29580;-64
2021/08/19 08:06:13;;;;;;;4.15;3.75;;;;;;;26.36;50.51;99919.30;2026890;86;27711;-61
2021/08/19 08:09:14;;;;;;;3.58;3.27;;;;;;;27.09;49.32;99917.19;1996462;86;29858;-62
2021/08/19 08:12:16;;;;;;;4.78;3.87;;;;;;;27.79;48.62;99914.73;1994949;89;31399;-63
2021/08/19 08:15:20;;;;;;;8.35;3.55;;;;;;;28.63;47.57;99907.45;1994644;88;33837;-65
2021/08/19 08:18:23;;;;;;;4.67;3.72;;;;;;;29.43;47.14;99910.73;1950080;91;29324;-65
2021/08/19 08:21:25;;;;;;;6.75;4.20;;;;;;;29.90;45.38;99908.83;1949981;91;27749;-64
2021/08/19 08:24:29;;;;;;;7.25;4.00;;;;;;;30.49;43.79;99914.52;1949749;91;28670;-63
2021/08/19 08:27:37;;;;;;;6.15;3.77;;;;;;;31.00;42.80;99905.92;1947554;91;31684;-62
2021/08/19 08:30:44;;;;;;;4.47;3.67;;;;;;;30.78;41.55;99907.33;1933960;90;33095;-63
2021/08/19 08:33:46;;;;;;;7.22;3.33;;;;;;;30.70;41.78;99906.49;1919432;92;29417;-63
2021/08/19 08:36:53;;;;;;;8.20;3.62;;;;;;;30.49;41.09;99911.75;1919309;91;28141;-63
2021/08/19 08:39:55;;;;;;;;;;;;;;;30.07;40.43;99913.44;1921652;92;28723;-64
2021/08/19 08:43:01;;;;;;;4.05;3.60;;;;;;;29.61;40.49;99915.66;1920923;91;32328;-62
2021/08/19 08:46:07;;;;;;;4.03;3.55;;;;;;;29.14;40.58;99919.13;1900102;92;33853;-62
2021/08/19 08:49:13;;;;;;;4.87;3.77;;;;;;;29.13;40.87;99924.32;1919981;91;29565;-64
2021/08/19 08:52:16;;;;;;;3.95;3.35;;;;;;;29.39;40.54;99917.21;1921008;91;27826;-65
2021/08/19 08:55:18;;;;;;;5.75;3.52;;;;;;;29.31;40.00;99923.75;1920654;92;29554;-65
2021/08/19 08:58:22;;;;;;;4.72;2.90;;;;;;;29.17;40.36;99924.23;1919206;92;31027;-65
2021/08/19 09:01:25;;;;;;;;;;;;;;;29.18;40.01;99930.62;1921587;92;33097;-65
2021/08/19 09:04:31;;;;;;;3.70;3.30;;;;;;;29.28;39.39;99924.70;1908597;92;27860;-63
2021/08/19 09:07:39;;;;;;;3.27;2.98;;;;;;;29.38;39.40;99916.89;1923117;91;27690;-61
2021/08/19 09:10:46;;;;;;;4.92;3.47;;;;;;;29.45;39.38;99918.28;1908498;93;29531;-63
2021/08/19 09:13:50;;;;;;;3.65;3.30;;;;;;;29.32;38.53;99914.41;1910038;92;31034;-62
2021/08/19 09:16:59;;;;;;;4.62;3.70;;;;;;;29.03;38.95;99915.09;1923630;92;33039;-64
2021/08/19 09:20:16;;;;;;;4.65;3.10;;;;;;;28.66;38.39;99921.38;1938939;90;29371;-64
2021/08/19 09:23:20;;;;;;;3.50;3.12;;;;;;;28.43;38.29;99916.17;1924768;92;27759;-64
2021/08/19 09:26:29;;;;;;;3.95;3.20;;;;;;;28.21;38.62;99918.99;1922977;92;28690;-64
2021/08/19 09:29:33;;;;;;;4.65;3.25;;;;;;;27.99;38.51;99925.05;1937196;90;31458;-64
2021/08/19 09:32:36;;;;;;;3.98;2.98;;;;;;;27.87;38.57;99913.23;1964314;89;33129;-65
2021/08/19 09:35:43;;;;;;;6.87;3.15;;;;;;;28.07;38.85;99915.25;1969867;90;30328;-65
2021/08/19 09:38:46;;;;;;;7.08;2.92;;;;;;;28.28;38.79;99905.26;1949143;89;27679;-64
2021/08/19 09:41:53;;;;;;;6.03;3.45;;;;;;;28.15;38.29;99906.88;1970591;89;28695;-65
2021/08/19 09:44:55;;;;;;;3.60;3.17;;;;;;;27.82;38.38;99917.09;1970423;89;31315;-64
2021/08/19 09:48:11;;;;;;;6.75;2.92;;;;;;;27.42;38.45;99924.44;1961803;89;34207;-64
2021/08/19 09:51:22;;;;;;;4.05;2.80;;;;;;;26.99;38.18;99933.98;1943505;89;30166;-63
2021/08/19 09:54:30;;;;;;;5.22;3.33;;;;;;;26.57;38.53;99939.67;1970780;89;27623;-64
2021/08/19 09:57:33;;;;;;;5.45;3.27;;;;;;;26.26;38.73;99948.41;1968486;89;28676;-64
2021/08/19 10:00:40;;;;;;;3.65;3.20;;;;;;;25.97;38.99;99945.09;1970156;89;31116;-62
2021/08/19 10:03:42;;;;;;;6.85;4.08;;;;;;;25.77;39.41;99946.44;1970131;89;32920;-63
2021/08/19 10:06:45;;;;;;;4.72;3.08;;;;;;;25.60;39.59;99949.84;1969343;89;29952;-64
2021/08/19 10:09:47;;;;;;;4.83;3.57;;;;;;;25.52;39.72;99955.91;1939095;90;27677;-61
2021/08/19 10:12:49;;;;;;;4.35;3.45;;;;;;;25.55;40.21;99954.18;1933061;92;29943;-63
2021/08/19 10:15:52;;;;;;;6.00;3.40;;;;;;;25.59;40.20;99953.63;1933422;92;32170;-63
2021/08/19 10:18:55;;;;;;;4.92;3.37;;;;;;;25.72;40.55;99954.39;1950247;90;34187;-62
2021/08/19 10:22:16;;;;;;;4.70;3.10;;;;;;;25.92;40.56;99945.12;1965068;90;30517;-63
2021/08/19 10:25:19;;;;;;;8.03;3.33;;;;;;;26.07;40.57;99953.36;1965362;90;27681;-59
2021/08/19 10:28:22;;;;;;;5.35;3.40;;;;;;;26.21;40.56;99947.61;1954646;89;29675;-62
2021/08/19 10:31:42;;;;;;;3.50;3.20;;;;;;;26.35;40.78;99950.05;1944305;89;33067;-66
2021/08/19 10:35:08;;;;;;;3.62;3.10;;;;;;;26.53;40.90;99951.56;1994990;88;33022;-65
2021/08/19 10:38:13;;;;;;;5.28;3.52;;;;;;;26.68;40.46;99952.91;1994795;89;29759;-65
2021/08/19 10:41:38;;;;;;;3.67;2.90;;;;;;;26.60;40.11;99957.16;1962681;89;27676;-67
2021/08/19 10:44:45;;;;;;;4.62;3.05;;;;;;;26.57;40.47;99953.41;1994669;89;28684;-66
2021/08/19 10:47:45;;;;;;;4.97;3.00;;;;;;;26.59;40.45;99957.66;1994688;88;31034;-65
2021/08/19 10:50:47;;;;;;;6.97;3.30;;;;;;;26.60;40.21;99955.24;1977152;89;34103;-65
2021/08/19 10:53:50;;;;;;;3.62;3.12;;;;;;;26.48;40.19;99953.48;1961947;90;44686;-64
2021/08/19 10:56:52;;;;;;;5.30;3.35;;;;;;;26.45;40.28;99953.89;1962088;89;28173;-64
2021/08/19 11:00:05;;;;;;;3.25;2.95;;;;;;;26.43;40.52;99957.34;1964554;89;30185;-64
2021/08/19 11:03:07;;;;;;;3.77;3.37;;;;;;;26.37;40.27;99964.95;1993725;88;32362;-65
2021/08/19 11:06:17;;;;;;;3.90;3.52;;;;;;;26.24;40.29;99969.20;1994400;88;34180;-65
2021/08/19 11:09:20;;;;;;;5.33;3.30;;;;;;;26.08;40.27;99961.09;1993936;88;30212;-64
2021/08/19 11:12:25;;;;;;;4.67;3.10;;;;;;;25.96;40.63;99965.34;1988528;88;27775;-66
2021/08/19 11:15:27;;;;;;;7.80;3.17;;;;;;;25.90;40.66;99962.28;1978125;89;28927;-65
2021/08/19 11:18:32;;;;;;;6.62;3.72;;;;;;;25.85;40.79;99966.09;1954372;89;31034;-65
2021/08/19 11:21:34;;;;;;;4.53;2.80;;;;;;;25.88;40.78;99958.88;1962488;90;32963;-64
2021/08/19 11:24:39;;;;;;;4.85;3.40;;;;;;;25.94;41.05;99960.02;1961911;90;29505;-63
2021/08/19 11:27:41;;;;;;;3.92;2.83;;;;;;;26.12;41.06;99968.47;1965141;89;27734;-62
2021/08/19 11:30:49;;;;;;;3.98;2.98;;;;;;;26.32;40.79;99963.28;1995008;89;28661;-63
2021/08/19 11:34:05;;;;;;;6.72;3.10;;;;;;;26.42;40.80;99964.38;1994826;87;31102;-63
2021/08/19 11:37:09;;;;;;;5.08;2.90;;;;;;;26.51;40.61;99963.26;1994818;88;33862;-63
2021/08/19 11:40:11;;;;;;;5.55;3.35;;;;;;;26.61;40.41;99961.07;1964447;88;30554;-64
2021/08/19 11:43:31;;;;;;;6.95;3.60;;;;;;;26.78;40.40;99963.62;1961742;89;27600;-63
2021/08/19 11:46:34;;;;;;;3.52;3.22;;;;;;;26.93;40.01;99960.89;1961995;89;28696;-63
2021/08/19 11:49:35;;;;;;;5.62;3.60;;;;;;;26.98;40.05;99957.89;1984794;89;31039;-63
2021/08/19 11:52:37;;;;;;;5.60;3.45;;;;;;;26.98;39.91;99956.52;1994953;88;34079;-62
2021/08/19 11:55:39;;;;;;;7.50;3.55;;;;;;;26.91;39.35;99956.95;1994883;88;29341;-63
2021/08/19 11:58:41;;;;;;;5.15;3.45;;;;;;;26.94;39.92;99957.94;1982058;88;27684;-64
2021/08/19 12:01:53;;;;;;;7.22;3.30;;;;;;;27.07;39.71;99955.89;1962066;89;28647;-63
2021/08/19 12:05:09;;;;;;;4.40;2.65;;;;;;;27.23;39.55;99962.20;1962987;89;31101;-64
2021/08/19 12:08:13;;;;;;;3.25;2.42;;;;;;;27.32;39.30;99956.89;1983038;88;33778;-62
2021/08/19 12:11:20;;;;;;;4.72;3.35;;;;;;;27.48;39.26;99965.97;1951962;89;29405;-65
2021/08/19 12:14:27;;;;;;;3.15;2.42;;;;;;;27.67;39.18;99961.20;1962014;88;27758;-63
2021/08/19 12:17:29;;;;;;;3.50;2.65;;;;;;;27.78;38.29;99965.87;1969569;89;28697;-67
2021/08/19 12:20:32;;;;;;;10.68;2.87;;;;;;;27.81;38.05;99969.58;1994741;89;31204;-62
2021/08/19 12:23:34;;;;;;;3.30;3.00;;;;;;;27.93;37.92;99959.75;1995109;88;33764;-64
2021/08/19 12:26:36;;;;;;;4.75;2.83;;;;;;;28.08;37.63;99962.94;1994432;88;30514;-66
2021/08/19 12:29:52;;;;;;;5.60;3.10;;;;;;;28.10;37.93;99960.88;1964816;89;27822;-63
2021/08/19 12:33:02;;;;;;;3.58;2.77;;;;;;;28.19;38.08;99961.91;1961739;89;29452;-63
2021/08/19 12:36:18;;;;;;;3.67;2.67;;;;;;;28.20;36.98;99967.73;1970410;89;31011;-64
2021/08/19 12:39:29;;;;;;;2.70;2.35;;;;;;;28.13;37.56;99970.95;1994933;88;33019;-63
2021/08/19 12:42:33;;;;;;;7.33;2.87;;;;;;;28.10;37.67;99967.22;1994983;89;30126;-64
2021/08/19 12:45:35;;;;;;;;;;;;;;;28.02;37.55;99967.34;1995509;88;27664;-63
2021/08/19 12:48:37;;;;;;;4.87;3.35;;;;;;;27.93;37.27;99972.14;1994899;88;28675;-63
2021/08/19 12:51:41;;;;;;;4.92;2.58;;;;;;;27.69;36.99;99971.49;1994805;89;32262;-63
2021/08/19 12:55:11;;;;;;;3.58;3.00;;;;;;;27.33;37.40;99974.27;1995016;88;37212;-63
2021/08/19 12:58:13;;;;;;;3.72;3.08;;;;;;;27.05;37.65;99978.59;1963719;89;29507;-64
2021/08/19 13:01:16;;;;;;;5.40;2.92;;;;;;;26.90;38.14;99981.35;1962024;89;27594;-64
2021/08/19 13:04:18;;;;;;;4.35;3.05;;;;;;;26.77;38.43;99983.39;1962019;89;28845;-64
2021/08/19 13:07:19;;;;;;;5.15;2.55;;;;;;;26.68;38.52;99985.38;1982330;89;31229;-63
2021/08/19 13:10:24;;;;;;;4.70;2.55;;;;;;;26.64;38.75;99980.47;1994923;88;33750;-64
2021/08/19 13:13:26;;;;;;;5.03;2.80;;;;;;;26.63;39.18;99987.84;1994864;88;29177;-64
2021/08/19 13:16:28;;;;;;;4.92;3.12;;;;;;;26.69;39.48;99986.22;1984346;88;27787;-63
2021/08/19 13:19:30;;;;;;;3.90;3.20;;;;;;;26.66;39.19;99988.84;1961304;89;28660;-63
2021/08/19 13:22:32;;;;;;;5.10;3.35;;;;;;;26.73;39.52;99992.19;1961926;89;31881;-63
2021/08/19 13:25:33;;;;;;;3.85;3.08;;;;;;;26.69;39.39;99991.72;1962023;89;33922;-63
2021/08/19 13:28:35;;;;;;;8.00;3.20;;;;;;;26.62;39.39;99994.37;1995096;89;29329;-64
2021/08/19 13:31:37;;;;;;;4.22;2.90;;;;;;;26.49;39.65;99992.81;1994718;88;27501;-62
2021/08/19 13:34:40;;;;;;;4.85;3.25;;;;;;;26.37;39.65;99989.67;1989067;88;28923;-63
2021/08/19 13:37:43;;;;;;;8.18;3.52;;;;;;;26.28;39.94;99997.14;1966507;88;32080;-62
2021/08/19 13:40:45;;;;;;;3.85;3.35;;;;;;;26.30;40.30;99997.80;1969346;88;33049;-63
2021/08/19 13:43:47;;;;;;;3.50;3.20;;;;;;;26.29;40.31;99997.47;2018476;88;29522;-62
2021/08/19 13:46:49;;;;;;;5.42;3.50;;;;;;;26.20;40.23;99997.23;1993764;88;27688;-63
2021/08/19 13:49:51;;;;;;;3.72;3.35;;;;;;;26.11;40.02;99997.83;1955981;90;29878;-63
2021/08/19 13:52:53;;;;;;;11.93;3.20;;;;;;;25.93;40.16;100005.84;1956300;89;31099;-63
2021/08/19 13:55:55;;;;;;;5.47;3.35;;;;;;;25.90;40.45;100005.33;1958379;89;32994;-63
2021/08/19 13:59:00;;;;;;;3.33;2.83;;;;;;;25.88;40.32;99995.92;1988937;88;29401;-63
2021/08/19 14:02:03;;;;;;;4.28;3.55;;;;;;;25.84;40.66;100007.45;1989385;88;27671;-61
2021/08/19 14:05:07;;;;;;;4.75;3.05;;;;;;;25.73;40.73;100011.48;1989326;88;28721;-61
2021/08/19 14:08:09;;;;;;;4.20;3.15;;;;;;;25.65;40.81;100008.28;1962929;88;31204;-62
2021/08/19 14:11:11;;;;;;;5.53;3.65;;;;;;;25.56;40.73;100008.84;1956058;90;33473;-61
2021/08/19 14:14:14;;;;;;;5.75;3.42;;;;;;;25.42;40.96;100009.09;1957936;89;30610;-64
2021/08/19 14:17:16;;;;;;;6.15;2.98;;;;;;;25.29;41.09;100015.66;1979754;89;27711;-62
2021/08/19 14:20:21;;;;;;;3.70;2.67;;;;;;;25.20;41.40;100004.41;1989231;89;29864;-62
2021/08/19 14:23:24;;;;;;;4.25;2.77;;;;;;;25.23;41.70;100005.44;1977755;88;32272;-63
2021/08/19 14:26:26;;;;;;;3.52;3.10;;;;;;;25.29;41.71;100001.95;1956463;90;32961;-63
2021/08/19 14:29:31;;;;;;;6.35;3.35;;;;;;;25.25;41.78;100006.95;1956404;90;29389;-63